sensor_id;sensor_type;location;lat;lon;timestamp;temperature;humidity
50738;DHT22;36703;48.154;17.126;2022-10-04T00:08:44;17.10;68.20
50738;DHT22;36703;48.154;17.126;2022-10-04T00:12:51;17.10;66.50
50738;DHT22;36703;48.154;17.126;2022-10-04T00:16:56;17.00;66.80
50738;DHT22;36703;48.154;17.126;2022-10-04T00:21:00;17.00;67.40
50738;DHT22;36703;48.154;17.126;2022-10-04T00:33:48;16.90;76.60
50738;DHT22;36703;48.154;17.126;2022-10-04T00:46:23;16.90;63.10
50738;DHT22;36703;48.154;17.126;2022-10-04T00:50:37;16.80;63.10
50738;DHT22;36703;48.154;17.126;2022-10-04T00:54:46;16.90;62.90
50738;DHT22;36703;48.154;17.126;2022-10-04T01:02:57;16.90;61.80
50738;DHT22;36703;48.154;17.126;2022-10-04T01:07:00;16.90;62.00
50738;DHT22;36703;48.154;17.126;2022-10-04T01:11:09;17.00;61.60
50738;DHT22;36703;48.154;17.126;2022-10-04T01:20:02;17.00;61.10
50738;DHT22;36703;48.154;17.126;2022-10-04T01:28:08;17.00;61.10
50738;DHT22;36703;48.154;17.126;2022-10-04T01:32:09;17.20;60.80
50738;DHT22;36703;48.154;17.126;2022-10-04T01:36:11;17.00;60.70
50738;DHT22;36703;48.154;17.126;2022-10-04T01:40:12;17.10;60.40
50738;DHT22;36703;48.154;17.126;2022-10-04T01:44:20;17.10;60.20
50738;DHT22;36703;48.154;17.126;2022-10-04T01:48:25;17.10;59.90
50738;DHT22;36703;48.154;17.126;2022-10-04T01:52:35;17.10;60.10
50738;DHT22;36703;48.154;17.126;2022-10-04T01:56:52;17.10;60.20
50738;DHT22;36703;48.154;17.126;2022-10-04T02:01:00;17.10;59.90
50738;DHT22;36703;48.154;17.126;2022-10-04T02:05:08;17.20;59.80
50738;DHT22;36703;48.154;17.126;2022-10-04T02:09:13;17.00;59.60
50738;DHT22;36703;48.154;17.126;2022-10-04T02:13:19;17.10;59.30
50738;DHT22;36703;48.154;17.126;2022-10-04T02:17:22;17.00;59.80
50738;DHT22;36703;48.154;17.126;2022-10-04T02:21:26;17.00;59.60
50738;DHT22;36703;48.154;17.126;2022-10-04T02:25:28;16.90;59.70
50738;DHT22;36703;48.154;17.126;2022-10-04T02:29:32;17.00;59.50
50738;DHT22;36703;48.154;17.126;2022-10-04T02:33:38;17.00;59.30
50738;DHT22;36703;48.154;17.126;2022-10-04T02:37:41;17.00;59.50
50738;DHT22;36703;48.154;17.126;2022-10-04T02:41:44;17.00;59.30
50738;DHT22;36703;48.154;17.126;2022-10-04T02:45:55;17.00;59.10
50738;DHT22;36703;48.154;17.126;2022-10-04T02:50:04;17.10;59.40
50738;DHT22;36703;48.154;17.126;2022-10-04T02:58:12;17.00;59.30
50738;DHT22;36703;48.154;17.126;2022-10-04T03:02:20;17.00;59.50
50738;DHT22;36703;48.154;17.126;2022-10-04T03:06:23;17.00;59.50
50738;DHT22;36703;48.154;17.126;2022-10-04T03:10:30;17.00;59.40
50738;DHT22;36703;48.154;17.126;2022-10-04T03:14:31;17.00;59.30
50738;DHT22;36703;48.154;17.126;2022-10-04T03:18:34;17.00;59.20
50738;DHT22;36703;48.154;17.126;2022-10-04T03:22:37;17.00;59.10
50738;DHT22;36703;48.154;17.126;2022-10-04T03:26:42;17.10;59.10
50738;DHT22;36703;48.154;17.126;2022-10-04T03:30:47;17.10;59.00
50738;DHT22;36703;48.154;17.126;2022-10-04T03:34:56;17.10;58.70
50738;DHT22;36703;48.154;17.126;2022-10-04T03:39:00;17.10;58.60
50738;DHT22;36703;48.154;17.126;2022-10-04T03:43:07;17.10;58.50
50738;DHT22;36703;48.154;17.126;2022-10-04T03:47:13;17.10;58.70
50738;DHT22;36703;48.154;17.126;2022-10-04T03:51:23;17.10;58.40
50738;DHT22;36703;48.154;17.126;2022-10-04T03:55:30;17.20;58.50
50738;DHT22;36703;48.154;17.126;2022-10-04T03:59:34;17.10;58.40
50738;DHT22;36703;48.154;17.126;2022-10-04T04:03:42;17.10;58.60
50738;DHT22;36703;48.154;17.126;2022-10-04T04:12:08;17.10;58.10
50738;DHT22;36703;48.154;17.126;2022-10-04T04:16:15;17.00;58.00
50738;DHT22;36703;48.154;17.126;2022-10-04T04:20:21;17.10;58.10
50738;DHT22;36703;48.154;17.126;2022-10-04T04:24:27;17.10;58.00
50738;DHT22;36703;48.154;17.126;2022-10-04T04:28:33;17.00;57.90
50738;DHT22;36703;48.154;17.126;2022-10-04T04:32:39;17.00;57.90
50738;DHT22;36703;48.154;17.126;2022-10-04T04:36:41;17.00;57.90
50738;DHT22;36703;48.154;17.126;2022-10-04T04:40:43;17.00;58.00
50738;DHT22;36703;48.154;17.126;2022-10-04T04:44:45;17.00;57.80
50738;DHT22;36703;48.154;17.126;2022-10-04T04:48:54;17.10;57.60
50738;DHT22;36703;48.154;17.126;2022-10-04T04:53:06;17.00;57.50
50738;DHT22;36703;48.154;17.126;2022-10-04T04:57:15;17.00;57.50
50738;DHT22;36703;48.154;17.126;2022-10-04T05:01:20;16.90;57.40
50738;DHT22;36703;48.154;17.126;2022-10-04T05:05:27;17.00;57.50
50738;DHT22;36703;48.154;17.126;2022-10-04T05:13:51;17.00;57.30
50738;DHT22;36703;48.154;17.126;2022-10-04T05:17:55;16.90;57.30
50738;DHT22;36703;48.154;17.126;2022-10-04T05:21:58;17.00;57.40
50738;DHT22;36703;48.154;17.126;2022-10-04T05:26:01;17.00;57.40
50738;DHT22;36703;48.154;17.126;2022-10-04T05:34:23;17.00;57.10
50738;DHT22;36703;48.154;17.126;2022-10-04T05:42:48;17.00;57.10
50738;DHT22;36703;48.154;17.126;2022-10-04T05:46:52;17.00;57.20
50738;DHT22;36703;48.154;17.126;2022-10-04T05:50:54;17.00;57.30
50738;DHT22;36703;48.154;17.126;2022-10-04T05:59:37;17.10;57.80
50738;DHT22;36703;48.154;17.126;2022-10-04T06:29:14;17.10;57.90
50738;DHT22;36703;48.154;17.126;2022-10-04T06:46:16;17.40;58.20
50738;DHT22;36703;48.154;17.126;2022-10-04T07:03:03;17.60;57.00
50738;DHT22;36703;48.154;17.126;2022-10-04T07:07:14;17.60;56.80
50738;DHT22;36703;48.154;17.126;2022-10-04T07:11:31;17.70;56.80
50738;DHT22;36703;48.154;17.126;2022-10-04T07:19:52;17.60;56.50
50738;DHT22;36703;48.154;17.126;2022-10-04T07:23:55;17.60;56.50
50738;DHT22;36703;48.154;17.126;2022-10-04T07:32:28;17.70;56.30
50738;DHT22;36703;48.154;17.126;2022-10-04T07:36:49;17.70;56.30
50738;DHT22;36703;48.154;17.126;2022-10-04T07:45:07;17.70;56.00
50738;DHT22;36703;48.154;17.126;2022-10-04T07:49:16;17.80;56.00
50738;DHT22;36703;48.154;17.126;2022-10-04T07:53:24;17.80;55.90
50738;DHT22;36703;48.154;17.126;2022-10-04T08:02:22;17.90;55.80
50738;DHT22;36703;48.154;17.126;2022-10-04T08:06:56;17.90;55.70
50738;DHT22;36703;48.154;17.126;2022-10-04T08:19:41;18.20;55.30
50738;DHT22;36703;48.154;17.126;2022-10-04T08:28:01;18.70;54.90
50738;DHT22;36703;48.154;17.126;2022-10-04T08:40:54;19.30;53.80
50738;DHT22;36703;48.154;17.126;2022-10-04T09:45:13;22.40;51.70
50738;DHT22;36703;48.154;17.126;2022-10-04T10:03:22;22.40;51.50
50738;DHT22;36703;48.154;17.126;2022-10-04T10:11:58;22.10;52.10
50738;DHT22;36703;48.154;17.126;2022-10-04T10:21:48;21.70;51.80
50738;DHT22;36703;48.154;17.126;2022-10-04T10:46:52;21.70;48.40
50738;DHT22;36703;48.154;17.126;2022-10-04T11:25:58;21.20;47.90
50738;DHT22;36703;48.154;17.126;2022-10-04T11:30:26;21.10;48.00
50738;DHT22;36703;48.154;17.126;2022-10-04T11:43:41;21.00;48.00
50738;DHT22;36703;48.154;17.126;2022-10-04T11:48:07;21.00;47.90
50738;DHT22;36703;48.154;17.126;2022-10-04T12:05:22;20.80;48.00
50738;DHT22;36703;48.154;17.126;2022-10-04T12:14:20;20.70;48.10
50738;DHT22;36703;48.154;17.126;2022-10-04T12:27:31;21.00;47.90
50738;DHT22;36703;48.154;17.126;2022-10-04T12:31:50;21.00;47.70
50738;DHT22;36703;48.154;17.126;2022-10-04T12:40:30;20.60;47.40
50738;DHT22;36703;48.154;17.126;2022-10-04T12:44:45;20.80;47.50
50738;DHT22;36703;48.154;17.126;2022-10-04T12:49:17;20.80;47.20
50738;DHT22;36703;48.154;17.126;2022-10-04T12:57:50;20.60;47.10
50738;DHT22;36703;48.154;17.126;2022-10-04T13:02:05;20.60;47.30
50738;DHT22;36703;48.154;17.126;2022-10-04T13:14:58;20.80;47.00
50738;DHT22;36703;48.154;17.126;2022-10-04T13:19:58;20.90;47.00
50738;DHT22;36703;48.154;17.126;2022-10-04T13:23:47;21.10;46.90
50738;DHT22;36703;48.154;17.126;2022-10-04T13:32:25;21.30;46.70
50738;DHT22;36703;48.154;17.126;2022-10-04T13:36:41;21.20;46.70
50738;DHT22;36703;48.154;17.126;2022-10-04T13:49:41;21.10;47.00
50738;DHT22;36703;48.154;17.126;2022-10-04T13:54:24;21.10;47.00
50738;DHT22;36703;48.154;17.126;2022-10-04T14:21:21;22.40;45.80
50738;DHT22;36703;48.154;17.126;2022-10-04T14:55:59;22.10;43.70
50738;DHT22;36703;48.154;17.126;2022-10-04T15:00:16;22.10;43.40
50738;DHT22;36703;48.154;17.126;2022-10-04T15:04:34;22.10;43.40
50738;DHT22;36703;48.154;17.126;2022-10-04T15:08:59;22.10;43.30
50738;DHT22;36703;48.154;17.126;2022-10-04T15:17:31;21.80;43.70
50738;DHT22;36703;48.154;17.126;2022-10-04T15:30:26;21.80;43.80
50738;DHT22;36703;48.154;17.126;2022-10-04T15:38:53;21.70;43.50
50738;DHT22;36703;48.154;17.126;2022-10-04T15:43:15;21.70;43.60
50738;DHT22;36703;48.154;17.126;2022-10-04T15:47:20;21.60;43.60
50738;DHT22;36703;48.154;17.126;2022-10-04T16:00:47;21.40;43.50
50738;DHT22;36703;48.154;17.126;2022-10-04T16:05:16;21.50;43.70
50738;DHT22;36703;48.154;17.126;2022-10-04T16:22:17;21.30;43.90
50738;DHT22;36703;48.154;17.126;2022-10-04T16:30:30;21.20;44.30
50738;DHT22;36703;48.154;17.126;2022-10-04T16:34:43;21.20;44.20
50738;DHT22;36703;48.154;17.126;2022-10-04T16:38:49;21.50;44.60
50738;DHT22;36703;48.154;17.126;2022-10-04T16:55:56;21.00;44.50
50738;DHT22;36703;48.154;17.126;2022-10-04T17:13:33;20.80;44.90
50738;DHT22;36703;48.154;17.126;2022-10-04T17:17:41;20.80;44.90
50738;DHT22;36703;48.154;17.126;2022-10-04T17:21:49;20.80;45.00
50738;DHT22;36703;48.154;17.126;2022-10-04T17:30:26;20.60;45.20
50738;DHT22;36703;48.154;17.126;2022-10-04T17:52:44;20.30;45.60
50738;DHT22;36703;48.154;17.126;2022-10-04T17:57:16;20.20;45.90
50738;DHT22;36703;48.154;17.126;2022-10-04T18:01:27;20.10;45.80
50738;DHT22;36703;48.154;17.126;2022-10-04T18:05:33;20.10;46.10
50738;DHT22;36703;48.154;17.126;2022-10-04T18:13:54;19.90;46.40
50738;DHT22;36703;48.154;17.126;2022-10-04T18:26:15;19.60;46.90
50738;DHT22;36703;48.154;17.126;2022-10-04T18:30:20;19.60;47.20
50738;DHT22;36703;48.154;17.126;2022-10-04T18:34:26;19.50;47.40
50738;DHT22;36703;48.154;17.126;2022-10-04T18:38:33;19.40;47.30
50738;DHT22;36703;48.154;17.126;2022-10-04T18:42:35;19.40;47.50
50738;DHT22;36703;48.154;17.126;2022-10-04T18:46:41;19.30;47.70
50738;DHT22;36703;48.154;17.126;2022-10-04T18:50:46;19.20;47.80
50738;DHT22;36703;48.154;17.126;2022-10-04T18:54:53;19.20;48.00
50738;DHT22;36703;48.154;17.126;2022-10-04T18:59:11;19.20;47.60
50738;DHT22;36703;48.154;17.126;2022-10-04T19:03:49;19.10;47.60
50738;DHT22;36703;48.154;17.126;2022-10-04T19:12:17;19.00;47.70
50738;DHT22;36703;48.154;17.126;2022-10-04T19:20:42;18.90;48.20
50738;DHT22;36703;48.154;17.126;2022-10-04T19:24:54;18.80;48.40
50738;DHT22;36703;48.154;17.126;2022-10-04T19:29:16;18.80;48.40
50738;DHT22;36703;48.154;17.126;2022-10-04T19:33:32;18.80;48.40
50738;DHT22;36703;48.154;17.126;2022-10-04T19:42:11;18.60;48.70
50738;DHT22;36703;48.154;17.126;2022-10-04T19:50:38;18.20;48.70
50738;DHT22;36703;48.154;17.126;2022-10-04T19:54:40;18.70;48.80
50738;DHT22;36703;48.154;17.126;2022-10-04T19:58:43;18.60;49.30
50738;DHT22;36703;48.154;17.126;2022-10-04T20:03:08;18.50;49.30
50738;DHT22;36703;48.154;17.126;2022-10-04T20:07:17;18.40;49.40
50738;DHT22;36703;48.154;17.126;2022-10-04T20:11:25;18.40;49.50
50738;DHT22;36703;48.154;17.126;2022-10-04T20:19:36;18.30;49.60
50738;DHT22;36703;48.154;17.126;2022-10-04T20:31:52;18.20;50.20
50738;DHT22;36703;48.154;17.126;2022-10-04T20:35:57;18.10;49.50
50738;DHT22;36703;48.154;17.126;2022-10-04T20:40:00;18.00;49.80
50738;DHT22;36703;48.154;17.126;2022-10-04T20:44:02;18.10;50.00
50738;DHT22;36703;48.154;17.126;2022-10-04T20:48:03;18.00;50.20
50738;DHT22;36703;48.154;17.126;2022-10-04T20:52:12;18.00;50.10
50738;DHT22;36703;48.154;17.126;2022-10-04T21:00:22;17.90;50.20
50738;DHT22;36703;48.154;17.126;2022-10-04T21:04:26;17.90;50.30
50738;DHT22;36703;48.154;17.126;2022-10-04T21:12:37;17.90;50.30
50738;DHT22;36703;48.154;17.126;2022-10-04T21:16:39;17.80;50.60
50738;DHT22;36703;48.154;17.126;2022-10-04T21:28:47;17.70;50.70
50738;DHT22;36703;48.154;17.126;2022-10-04T21:32:52;17.70;50.50
50738;DHT22;36703;48.154;17.126;2022-10-04T21:36:54;17.60;50.90
50738;DHT22;36703;48.154;17.126;2022-10-04T21:40:55;17.50;51.00
50738;DHT22;36703;48.154;17.126;2022-10-04T21:44:57;17.50;51.00
50738;DHT22;36703;48.154;17.126;2022-10-04T21:48:58;17.50;51.20
50738;DHT22;36703;48.154;17.126;2022-10-04T21:53:00;17.60;51.90
50738;DHT22;36703;48.154;17.126;2022-10-04T21:57:01;17.40;51.60
50738;DHT22;36703;48.154;17.126;2022-10-04T22:01:02;17.40;52.00
50738;DHT22;36703;48.154;17.126;2022-10-04T22:05:04;17.40;51.90
50738;DHT22;36703;48.154;17.126;2022-10-04T22:09:06;17.30;52.00
50738;DHT22;36703;48.154;17.126;2022-10-04T22:13:07;17.30;52.10
50738;DHT22;36703;48.154;17.126;2022-10-04T22:17:08;17.20;52.10
50738;DHT22;36703;48.154;17.126;2022-10-04T22:21:10;17.20;52.40
50738;DHT22;36703;48.154;17.126;2022-10-04T22:25:15;17.00;60.20
50738;DHT22;36703;48.154;17.126;2022-10-04T22:29:18;16.90;61.60
50738;DHT22;36703;48.154;17.126;2022-10-04T22:33:39;16.70;72.60
50738;DHT22;36703;48.154;17.126;2022-10-04T22:37:41;16.70;65.20
50738;DHT22;36703;48.154;17.126;2022-10-04T22:45:48;16.70;61.10
50738;DHT22;36703;48.154;17.126;2022-10-04T22:49:50;16.80;60.80
50738;DHT22;36703;48.154;17.126;2022-10-04T22:53:52;16.80;60.00
50738;DHT22;36703;48.154;17.126;2022-10-04T22:57:53;16.80;59.80
50738;DHT22;36703;48.154;17.126;2022-10-04T23:01:55;16.80;59.60
50738;DHT22;36703;48.154;17.126;2022-10-04T23:06:00;16.90;59.20
50738;DHT22;36703;48.154;17.126;2022-10-04T23:10:02;16.80;59.00
50738;DHT22;36703;48.154;17.126;2022-10-04T23:14:03;16.80;58.70
50738;DHT22;36703;48.154;17.126;2022-10-04T23:18:15;16.80;58.90
50738;DHT22;36703;48.154;17.126;2022-10-04T23:22:17;16.80;58.70
50738;DHT22;36703;48.154;17.126;2022-10-04T23:26:22;16.80;58.50
50738;DHT22;36703;48.154;17.126;2022-10-04T23:30:25;16.80;58.20
50738;DHT22;36703;48.154;17.126;2022-10-04T23:38:35;16.90;58.00
50738;DHT22;36703;48.154;17.126;2022-10-04T23:42:36;16.80;57.80
50738;DHT22;36703;48.154;17.126;2022-10-04T23:46:37;16.80;57.50
50738;DHT22;36703;48.154;17.126;2022-10-04T23:50:39;16.70;57.30
50738;DHT22;36703;48.154;17.126;2022-10-04T23:54:40;16.70;57.10
50738;DHT22;36703;48.154;17.126;2022-10-04T23:58:42;16.60;56.90
